createdAt,value
2016-05-15T00:00:16.013Z,52.18
2016-05-15T00:01:15.843Z,52.47
2016-05-15T00:02:15.846Z,52.18
2016-05-15T00:03:16.004Z,51.99
2016-05-15T00:04:16.133Z,52.18
2016-05-15T00:05:15.980Z,52.18
2016-05-15T00:06:15.982Z,51.99
2016-05-15T00:07:15.985Z,52.18
2016-05-15T00:08:16.002Z,51.99
2016-05-15T00:09:15.989Z,52.84
2016-05-15T00:10:15.992Z,52.66
2016-05-15T00:11:15.980Z,52.66
2016-05-15T00:12:15.982Z,52.47
2016-05-15T00:13:15.985Z,52.66
2016-05-15T00:14:16.003Z,52.66
2016-05-15T00:15:15.990Z,52.84
2016-05-15T00:16:15.821Z,52.66
2016-05-15T00:17:15.980Z,52.37
2016-05-15T00:18:15.983Z,52.75
2016-05-15T00:19:18.986Z,51.99
2016-05-15T00:20:15.972Z,52.28
2016-05-15T00:21:15.975Z,52.09
2016-05-15T00:22:15.962Z,52.28
2016-05-15T00:23:15.792Z,52.66
2016-05-15T00:24:15.953Z,52.75
2016-05-15T00:25:15.955Z,52.66
2016-05-15T00:26:15.958Z,53.13
2016-05-15T00:27:15.944Z,53.13
2016-05-15T00:28:15.963Z,52.84
2016-05-15T00:29:15.933Z,53.13
2016-05-15T00:30:15.936Z,53.42
2016-05-15T00:31:15.939Z,53.32
2016-05-15T00:32:15.958Z,53.52
2016-05-15T00:33:15.961Z,53.23
2016-05-15T00:34:15.947Z,53.32
2016-05-15T00:35:15.935Z,53.32
2016-05-15T00:36:15.781Z,53.32
2016-05-15T00:37:15.955Z,53.13
2016-05-15T00:38:15.943Z,53.32
2016-05-15T00:39:15.945Z,52.94
2016-05-15T00:40:15.932Z,53.13
2016-05-15T00:41:15.935Z,53.32
2016-05-15T00:42:15.765Z,53.32
2016-05-15T00:43:15.925Z,53.32
2016-05-15T00:44:15.928Z,53.52
2016-05-15T00:45:15.931Z,53.13
2016-05-15T00:46:15.917Z,53.39
2016-05-15T00:47:15.920Z,53.42
2016-05-15T00:48:15.767Z,53.89
2016-05-15T00:49:16.644Z,53.7
2016-05-15T00:50:15.913Z,53.13
2016-05-15T00:51:15.915Z,53.39
2016-05-15T00:52:15.903Z,53.58
2016-05-15T00:53:15.905Z,53.58
2016-05-15T00:54:15.986Z,53.77
2016-05-15T00:55:15.894Z,53.49
2016-05-15T00:56:15.928Z,54.15
2016-05-15T00:57:15.900Z,54.25
2016-05-15T00:58:15.903Z,54.44
2016-05-15T00:59:15.889Z,54.72
2016-05-15T01:00:15.892Z,54.53
2016-05-15T01:01:15.739Z,55.1
2016-05-15T01:02:15.897Z,55.29
2016-05-15T01:03:43.185Z,55.1
2016-05-15T01:04:15.747Z,55.29
2016-05-15T01:05:15.735Z,55.2
2016-05-15T01:06:15.737Z,55.96
2016-05-15T01:07:15.880Z,55.96
2016-05-15T01:08:15.899Z,56.15
2016-05-15T01:09:15.885Z,56.63
2016-05-15T01:10:15.732Z,56.34
2016-05-15T01:11:15.876Z,56.34
2016-05-15T01:12:15.894Z,56.82
2016-05-15T01:13:15.865Z,56.53
2016-05-15T01:14:15.712Z,56.34
2016-05-15T01:15:15.901Z,56.44
2016-05-15T01:16:15.873Z,56.44
2016-05-15T01:17:15.876Z,56.34
2016-05-15T01:18:15.862Z,56.53
2016-05-15T01:19:16.100Z,56.44
2016-05-15T01:20:15.868Z,56.44
2016-05-15T01:21:15.855Z,56.63
2016-05-15T01:22:15.859Z,57.1
2016-05-15T01:23:15.861Z,57.07
2016-05-15T01:24:15.848Z,56.92
2016-05-15T01:25:15.850Z,56.92
2016-05-15T01:26:15.837Z,57.48
2016-05-15T01:27:15.840Z,57.48
2016-05-15T01:28:15.842Z,57.39
2016-05-15T01:29:15.845Z,57.39
2016-05-15T01:30:15.848Z,57.67
2016-05-15T01:31:15.866Z,57.48
2016-05-15T01:32:15.838Z,57.77
2016-05-15T01:33:15.825Z,57.96
2016-05-15T01:34:15.828Z,57.87
2016-05-15T01:35:15.830Z,57.67
2016-05-15T01:36:15.849Z,57.48
2016-05-15T01:37:15.821Z,57.74
2016-05-15T01:38:15.823Z,57.65
2016-05-15T01:39:15.810Z,56.88
2016-05-15T01:40:15.829Z,57.45
2016-05-15T01:41:15.815Z,56.7
2016-05-15T01:42:15.818Z,57.45
2016-05-15T01:43:15.804Z,57.45
2016-05-15T01:44:15.807Z,57.45
2016-05-15T01:45:15.810Z,57.07
2016-05-15T01:46:15.797Z,56.88
2016-05-15T01:47:15.831Z,56.79
2016-05-15T01:48:15.787Z,57.07
2016-05-15T01:49:16.290Z,56.79
2016-05-15T01:50:15.793Z,56.88
2016-05-15T01:51:15.795Z,57.45
2016-05-15T01:52:15.798Z,57.45
2016-05-15T01:53:15.784Z,57.26
2016-05-15T01:54:15.788Z,57.55
2016-05-15T01:55:15.775Z,57.45
2016-05-15T01:56:15.778Z,57.55
2016-05-15T01:57:15.764Z,57.36
2016-05-15T01:58:15.798Z,56.79
2016-05-15T01:59:15.770Z,56.7
2016-05-15T02:00:15.616Z,56.6
2016-05-15T02:01:15.619Z,56.88
2016-05-15T02:02:15.763Z,56.98
2016-05-15T02:03:15.766Z,56.88
2016-05-15T02:04:15.768Z,57.17
2016-05-15T02:05:15.755Z,57.45
2016-05-15T02:06:15.757Z,57.55
2016-05-15T02:07:15.760Z,57.65
2016-05-15T02:08:15.747Z,57.65
2016-05-15T02:09:15.749Z,57.84
2016-05-15T02:10:15.738Z,57.74
2016-05-15T02:11:15.787Z,57.65
2016-05-15T02:12:15.743Z,57.55
2016-05-15T02:13:15.573Z,57.55
2016-05-15T02:14:15.733Z,57.55
2016-05-15T02:15:15.719Z,57.36
2016-05-15T02:16:15.737Z,57.65
2016-05-15T02:17:15.585Z,57.65
2016-05-15T02:18:15.727Z,57.65
2016-05-15T02:19:15.714Z,58.12
2016-05-15T02:20:15.562Z,57.84
2016-05-15T02:21:15.735Z,57.93
2016-05-15T02:22:15.723Z,57.84
2016-05-15T02:23:15.709Z,58.12
2016-05-15T02:24:15.712Z,58.22
2016-05-15T02:25:15.715Z,58.03
2016-05-15T02:26:15.545Z,57.9
2016-05-15T02:27:15.705Z,58.03
2016-05-15T02:28:15.708Z,58.12
2016-05-15T02:29:15.711Z,57.9
2016-05-15T02:30:15.713Z,58.28
2016-05-15T02:31:15.716Z,58.57
2016-05-15T02:32:15.702Z,58.66
2016-05-15T02:33:15.690Z,58.66
2016-05-15T02:34:15.536Z,58.47
2016-05-15T02:35:15.694Z,58.66
2016-05-15T02:36:15.713Z,58.76
2016-05-15T02:37:15.528Z,58.57
2016-05-15T02:38:15.672Z,59.23
2016-05-15T02:39:15.674Z,59.14
2016-05-15T02:40:15.693Z,58.95
2016-05-15T02:41:15.664Z,59.23
2016-05-15T02:42:15.682Z,59.14
2016-05-15T02:43:15.654Z,59.05
2016-05-15T02:44:15.657Z,59.61
2016-05-15T02:45:15.660Z,59.42
2016-05-15T02:46:15.662Z,59.71
2016-05-15T02:47:15.649Z,59.9
2016-05-15T02:48:15.651Z,59.99
2016-05-15T02:49:15.498Z,59.9
2016-05-15T02:50:15.673Z,60.18
2016-05-15T02:51:15.675Z,59.9
2016-05-15T02:52:15.476Z,59.99
2016-05-15T02:53:15.478Z,60.38
2016-05-15T02:54:15.636Z,59.9
2016-05-15T02:55:15.483Z,60.38
2016-05-15T02:56:15.626Z,60.18
2016-05-15T02:57:15.629Z,60.57
2016-05-15T02:58:15.616Z,60.09
2016-05-15T02:59:15.620Z,60.47
2016-05-15T03:00:15.606Z,60.75
2016-05-15T03:01:15.452Z,60.75
2016-05-15T03:02:15.455Z,61.23
2016-05-15T03:03:15.614Z,60.85
2016-05-15T03:04:15.944Z,61.71
2016-05-15T03:05:15.603Z,61.61
2016-05-15T03:06:15.591Z,61.42
2016-05-15T03:07:15.609Z,61.42
2016-05-15T03:08:15.596Z,61.61
2016-05-15T03:09:15.614Z,61.42
2016-05-15T03:10:15.602Z,61.13
2016-05-15T03:11:15.588Z,62.18
2016-05-15T03:12:15.576Z,61.9
2016-05-15T03:13:15.579Z,62.37
2016-05-15T03:14:15.582Z,62.65
2016-05-15T03:15:15.568Z,62.75
2016-05-15T03:16:15.571Z,62.75
2016-05-15T03:17:15.558Z,62.75
2016-05-15T03:18:15.560Z,63.04
2016-05-15T03:19:15.563Z,62.94
2016-05-15T03:20:15.565Z,63.23
2016-05-15T03:21:15.554Z,63.51
2016-05-15T03:22:15.571Z,63.29
2016-05-15T03:23:15.558Z,63.32
2016-05-15T03:24:15.546Z,63.13
2016-05-15T03:25:15.548Z,63.57
2016-05-15T03:26:15.550Z,63.48
2016-05-15T03:27:15.382Z,63.86
2016-05-15T03:28:15.525Z,63.57
2016-05-15T03:29:15.528Z,63.51
2016-05-15T03:30:15.530Z,63.42
2016-05-15T03:31:15.533Z,63.6
2016-05-15T03:32:15.520Z,63.23
2016-05-15T03:33:15.553Z,63.89
2016-05-15T03:34:15.744Z,62.85
2016-05-15T03:35:15.513Z,62.37
2016-05-15T03:36:15.516Z,62.46
2016-05-15T03:37:15.518Z,62.56
2016-05-15T03:38:15.489Z,62.75
2016-05-15T03:39:15.508Z,62.94
2016-05-15T03:40:15.510Z,62.46
2016-05-15T03:41:15.529Z,62.37
2016-05-15T03:42:15.485Z,62.75
2016-05-15T03:43:15.488Z,62.81
2016-05-15T03:44:15.490Z,62.85
2016-05-15T03:45:15.476Z,62.56
2016-05-15T03:46:15.480Z,62.62
2016-05-15T03:47:15.498Z,62.34
2016-05-15T03:48:15.468Z,62.24
2016-05-15T03:49:15.488Z,62.34
2016-05-15T03:50:15.475Z,62.43
2016-05-15T03:51:15.462Z,62.24
2016-05-15T03:52:15.464Z,62.46
2016-05-15T03:53:15.312Z,62.34
2016-05-15T03:54:15.314Z,62.53
2016-05-15T03:55:15.456Z,62.62
2016-05-15T03:56:15.445Z,61.9
2016-05-15T03:57:15.478Z,62.34
2016-05-15T03:58:15.450Z,62.53
2016-05-15T03:59:15.436Z,62.34
2016-05-15T04:00:15.455Z,62.34
2016-05-15T04:01:15.442Z,62.24
2016-05-15T04:02:15.444Z,62.24
2016-05-15T04:03:15.431Z,62.34
2016-05-15T04:04:15.481Z,62.24
2016-05-15T04:05:15.437Z,62.34
2016-05-15T04:06:15.424Z,61.9
2016-05-15T04:07:15.411Z,61.9
2016-05-15T04:08:15.430Z,62.15
2016-05-15T04:09:15.260Z,62.15
2016-05-15T04:10:15.419Z,62.34
2016-05-15T04:11:15.406Z,62.05
2016-05-15T04:12:15.394Z,62.08
2016-05-15T04:13:15.411Z,62.34
2016-05-15T04:14:15.398Z,62.43
2016-05-15T04:15:15.417Z,62.53
2016-05-15T04:16:15.388Z,61.96
2016-05-15T04:17:15.390Z,62.53
2016-05-15T04:18:15.394Z,62.62
2016-05-15T04:19:15.756Z,62.62
2016-05-15T04:20:15.399Z,62.43
2016-05-15T04:21:15.402Z,62.53
2016-05-15T04:22:15.390Z,62.62
2016-05-15T04:23:15.376Z,62.72
2016-05-15T04:24:15.362Z,62.81
2016-05-15T04:25:15.366Z,63.01
2016-05-15T04:26:15.384Z,62.81
2016-05-15T04:27:15.371Z,62.91
2016-05-15T04:28:15.358Z,62.81
2016-05-15T04:29:15.361Z,62.81
2016-05-15T04:30:15.348Z,62.91
2016-05-15T04:31:15.350Z,62.81
2016-05-15T04:32:15.228Z,62.65
2016-05-15T04:33:15.372Z,62.65
2016-05-15T04:34:15.875Z,62.56
2016-05-15T04:35:15.330Z,62.56
2016-05-15T04:36:15.333Z,62.34
2016-05-15T04:37:15.320Z,62.53
2016-05-15T04:38:15.338Z,62.34
2016-05-15T04:39:15.325Z,62.37
2016-05-15T04:40:15.313Z,62.62
2016-05-15T04:41:15.330Z,62.62
2016-05-15T04:42:15.364Z,62.65
2016-05-15T04:43:15.336Z,62.53
2016-05-15T04:44:15.323Z,62.34
2016-05-15T04:45:15.310Z,62.43
2016-05-15T04:46:15.312Z,62.18
2016-05-15T04:47:15.300Z,62.27
2016-05-15T04:48:15.302Z,62.18
2016-05-15T04:49:15.946Z,62.18
2016-05-15T04:50:15.293Z,62.18
2016-05-15T04:51:15.295Z,61.9
2016-05-15T04:52:15.141Z,61.42
2016-05-15T04:53:15.285Z,61.23
2016-05-15T04:54:15.287Z,61.71
2016-05-15T04:55:15.274Z,61.04
2016-05-15T04:56:15.293Z,61.61
2016-05-15T04:57:15.280Z,61.99
2016-05-15T04:58:15.282Z,62.08
2016-05-15T04:59:15.285Z,62.56
2016-05-15T05:00:15.272Z,62.08
2016-05-15T05:01:15.275Z,61.61
2016-05-15T05:02:15.122Z,61.13
2016-05-15T05:03:15.264Z,62.18
2016-05-15T05:04:15.768Z,61.23
2016-05-15T05:05:15.270Z,61.42
2016-05-15T05:06:15.257Z,61.42
2016-05-15T05:07:15.261Z,61.13
2016-05-15T05:08:15.263Z,60.85
2016-05-15T05:09:15.249Z,61.13
2016-05-15T05:10:15.112Z,60.75
2016-05-15T05:11:15.255Z,60.18
2016-05-15T05:12:15.258Z,59.36
2016-05-15T05:13:15.088Z,58.88
2016-05-15T05:14:15.247Z,58.31
2016-05-15T05:15:15.250Z,57.01
2016-05-15T05:16:15.237Z,56.34
2016-05-15T05:17:15.255Z,56.53
2016-05-15T05:18:15.227Z,56.53
2016-05-15T05:19:15.230Z,57.1
2016-05-15T05:20:15.232Z,57.01
2016-05-15T05:21:15.251Z,56.53
2016-05-15T05:22:15.222Z,56.82
2016-05-15T05:23:15.240Z,56.53
2016-05-15T05:24:15.227Z,56.63
2016-05-15T05:25:15.089Z,56.79
2016-05-15T05:26:15.233Z,57.1
2016-05-15T05:27:15.220Z,57.1
2016-05-15T05:28:15.222Z,56.82
2016-05-15T05:29:15.210Z,56.82
2016-05-15T05:30:15.212Z,56.34
2016-05-15T05:31:15.058Z,56.44
2016-05-15T05:32:15.202Z,56.15
2016-05-15T05:33:15.221Z,56.15
2016-05-15T05:34:15.208Z,55.96
2016-05-15T05:35:15.194Z,55.58
2016-05-15T05:36:15.198Z,55.39
2016-05-15T05:37:15.200Z,55.1
2016-05-15T05:38:15.202Z,55.39
2016-05-15T05:39:15.221Z,55.49
2016-05-15T05:40:15.208Z,55.58
2016-05-15T05:41:15.211Z,55.1
2016-05-15T05:42:15.197Z,53.67
2016-05-15T05:43:15.044Z,52.84
2016-05-15T05:44:15.188Z,52.11
2016-05-15T05:45:15.205Z,53.06
2016-05-15T05:46:15.036Z,52.94
2016-05-15T05:47:15.196Z,53.89
2016-05-15T05:48:15.183Z,53.42
2016-05-15T05:49:15.216Z,53.61
2016-05-15T05:50:15.188Z,54.08
2016-05-15T05:51:15.191Z,54.27
2016-05-15T05:52:15.193Z,54.56
2016-05-15T05:53:15.196Z,54.25
2016-05-15T05:54:15.199Z,54.72
2016-05-15T05:55:15.201Z,55.01
2016-05-15T05:56:15.173Z,55.2
2016-05-15T05:57:15.176Z,55.1
2016-05-15T05:58:15.193Z,55.29
2016-05-15T05:59:15.025Z,55.39
2016-05-15T06:00:15.183Z,54.53
2016-05-15T06:01:15.171Z,54.06
2016-05-15T06:02:15.189Z,54.35
2016-05-15T06:03:15.176Z,54.44
2016-05-15T06:04:15.039Z,54.53
2016-05-15T06:05:15.181Z,54.91
2016-05-15T06:06:15.184Z,55.2
2016-05-15T06:07:15.187Z,54.35
2016-05-15T06:08:15.174Z,53.96
2016-05-15T06:09:15.177Z,53.3
2016-05-15T06:10:15.179Z,53.32
2016-05-15T06:11:15.183Z,52.84
2016-05-15T06:12:15.169Z,52.28
2016-05-15T06:13:15.172Z,51.8
2016-05-15T06:14:15.033Z,51.14
2016-05-15T06:15:15.161Z,51.61
2016-05-15T06:16:15.164Z,50.75
2016-05-15T06:17:15.010Z,50.68
2016-05-15T06:18:15.014Z,49.35
2016-05-15T06:19:15.172Z,48.13
2016-05-15T06:20:15.174Z,47.11
2016-05-15T06:21:15.178Z,47.02
2016-05-15T06:22:15.165Z,46.92
2016-05-15T06:23:15.167Z,47.94
2016-05-15T06:24:15.185Z,48.04
2016-05-15T06:25:15.157Z,48.71
2016-05-15T06:26:15.176Z,49.37
2016-05-15T06:27:15.178Z,49.56
2016-05-15T06:28:15.165Z,50.21
2016-05-15T06:29:15.168Z,50.13
2016-05-15T06:30:15.201Z,48.99
2016-05-15T06:31:15.189Z,48.13
2016-05-15T06:32:15.176Z,46.34
2016-05-15T06:33:15.179Z,45.22
2016-05-15T06:34:15.337Z,44.08
2016-05-15T06:35:15.012Z,41.91
2016-05-15T06:36:15.171Z,40.59
2016-05-15T06:37:15.173Z,39.47
2016-05-15T06:38:15.176Z,38.62
2016-05-15T06:39:15.178Z,38.05
2016-05-15T06:40:15.042Z,36.99
2016-05-15T06:41:15.200Z,36.92
2016-05-15T06:42:15.186Z,36.92
2016-05-15T06:43:15.190Z,36.06
2016-05-15T06:44:15.208Z,35.6
2016-05-15T06:45:15.211Z,35.12
2016-05-15T06:46:15.197Z,34.85
2016-05-15T06:47:15.217Z,34.28
2016-05-15T06:48:15.219Z,34.26
2016-05-15T06:49:15.471Z,34.85
2016-05-15T06:50:15.225Z,33.61
2016-05-15T06:51:15.227Z,32.47
2016-05-15T06:52:15.229Z,32.93
2016-05-15T06:53:15.248Z,34.16
2016-05-15T06:54:15.251Z,35
2016-05-15T06:55:15.082Z,36.15
2016-05-15T06:56:15.256Z,36.9
2016-05-15T06:57:15.259Z,37.55
2016-05-15T06:58:15.262Z,37.74
2016-05-15T06:59:15.264Z,35.66
2016-05-15T07:00:15.267Z,34.61
2016-05-15T07:01:15.270Z,34.14
2016-05-15T07:02:15.132Z,32.9
2016-05-15T07:03:15.275Z,32.73
2016-05-15T07:04:15.465Z,32.63
2016-05-15T07:05:15.281Z,32.06
2016-05-15T07:06:15.283Z,32.15
2016-05-15T07:07:15.285Z,32.25
2016-05-15T07:08:15.289Z,32.44
2016-05-15T07:09:15.291Z,32.81
2016-05-15T07:10:15.294Z,33.56
2016-05-15T07:11:15.139Z,33.75
2016-05-15T07:12:15.347Z,34.49
2016-05-15T07:13:15.333Z,35.83
2016-05-15T07:14:15.351Z,36.68
2016-05-15T07:15:15.339Z,37.9
2016-05-15T07:16:15.357Z,38.18
2016-05-15T07:17:15.328Z,38.37
2016-05-15T07:18:15.331Z,38.37
2016-05-15T07:19:15.333Z,38.28
2016-05-15T07:20:15.368Z,37.53
2016-05-15T07:21:15.354Z,38.09
2016-05-15T07:22:15.185Z,36.96
2016-05-15T07:23:15.188Z,37.8
2016-05-15T07:24:15.191Z,38.47
2016-05-15T07:25:15.349Z,38.18
2016-05-15T07:26:15.352Z,38.18
2016-05-15T07:27:15.355Z,37.51
2016-05-15T07:28:15.201Z,36.77
2016-05-15T07:29:15.360Z,35.64
2016-05-15T07:30:15.363Z,35.08
2016-05-15T07:31:15.366Z,34.42
2016-05-15T07:32:15.384Z,33.84
2016-05-15T07:33:15.371Z,34.61
2016-05-15T07:34:15.421Z,35.47
2016-05-15T07:35:15.376Z,35.57
2016-05-15T07:36:15.378Z,35.66
2016-05-15T07:37:15.226Z,34.89
2016-05-15T07:38:15.384Z,34.32
2016-05-15T07:39:15.407Z,35.37
2016-05-15T07:40:15.485Z,36.98
2016-05-15T07:41:15.516Z,38.58
2016-05-15T07:42:15.577Z,39.71
2016-05-15T07:43:15.591Z,40.36
2016-05-15T07:44:15.641Z,40.93
2016-05-15T07:45:15.643Z,41.6
2016-05-15T07:46:15.662Z,41.2
2016-05-15T07:47:15.680Z,41.29
2016-05-15T07:48:15.698Z,41.1
2016-05-15T07:49:16.431Z,41.29
2016-05-15T07:50:15.720Z,40.72
2016-05-15T07:51:15.728Z,39.5
2016-05-15T07:52:15.736Z,36.08
2016-05-15T07:53:23.917Z,34.09
2016-05-15T07:54:15.595Z,32.6
2016-05-15T07:55:15.771Z,31.85
2016-05-15T07:56:15.745Z,31.58
2016-05-15T07:57:15.749Z,31.48
2016-05-15T07:58:15.754Z,31.5
2016-05-15T07:59:15.601Z,31.96
2016-05-15T08:00:15.762Z,31.87
2016-05-15T08:01:15.780Z,31.77
2016-05-15T08:02:15.783Z,30.73
2016-05-15T08:03:15.787Z,29.6
2016-05-15T08:04:16.040Z,28.37
2016-05-15T08:05:15.809Z,27.61
2016-05-15T08:06:15.796Z,28
2016-05-15T08:07:15.800Z,28.46
2016-05-15T08:08:15.803Z,30.06
2016-05-15T08:09:15.821Z,30.72
2016-05-15T08:10:15.841Z,31.1
2016-05-15T08:11:15.843Z,31.87
2016-05-15T08:12:15.813Z,32.54
2016-05-15T08:13:15.816Z,33.09
2016-05-15T08:14:15.694Z,34.32
2016-05-15T08:15:15.822Z,35.28
2016-05-15T08:16:15.856Z,36.41
2016-05-15T08:17:15.859Z,37.92
2016-05-15T08:18:15.846Z,39.71
2016-05-15T08:19:15.864Z,41.12
2016-05-15T08:20:15.851Z,42.05
2016-05-15T08:21:15.854Z,43.1
2016-05-15T08:22:15.716Z,43.77
2016-05-15T08:23:15.875Z,44.06
2016-05-15T08:24:15.862Z,44.13
2016-05-15T08:25:15.881Z,45.08
2016-05-15T08:26:15.867Z,44.89
2016-05-15T08:27:15.886Z,44.7
2016-05-15T08:28:15.919Z,44.8
2016-05-15T08:29:15.938Z,43.18
2016-05-15T08:30:15.706Z,41.48
2016-05-15T08:31:15.864Z,38.18
2016-05-15T08:32:15.883Z,36.19
2016-05-15T08:33:15.886Z,34.13
2016-05-15T08:34:15.842Z,32.62
2016-05-15T08:35:15.735Z,31.09
2016-05-15T08:36:15.879Z,30.15
2016-05-15T08:37:15.897Z,29.39
2016-05-15T08:38:15.915Z,28.26
2016-05-15T08:39:15.872Z,28.26
2016-05-15T08:40:15.889Z,28.55
2016-05-15T08:41:15.891Z,29.58
2016-05-15T08:42:15.910Z,31.29
2016-05-15T08:43:15.897Z,32.71
2016-05-15T08:44:15.900Z,34.32
2016-05-15T08:45:15.949Z,36
2016-05-15T08:46:15.905Z,38.1
2016-05-15T08:47:15.908Z,39.52
2016-05-15T08:48:15.910Z,40.45
2016-05-15T08:49:15.773Z,40.74
2016-05-15T08:50:15.916Z,39.31
2016-05-15T08:51:15.919Z,39.12
2016-05-15T08:52:15.937Z,37.88
2016-05-15T08:53:15.924Z,38.43
2016-05-15T08:54:15.942Z,38.93
2016-05-15T08:55:15.945Z,39.48
2016-05-15T08:56:15.932Z,40.53
2016-05-15T08:57:15.935Z,40.72
2016-05-15T08:58:15.922Z,40.89
2016-05-15T08:59:15.940Z,41.65
2016-05-15T09:00:15.959Z,41.17
2016-05-15T09:01:15.789Z,41.36
2016-05-15T09:02:15.948Z,40.7
2016-05-15T09:03:15.936Z,41.46
2016-05-15T09:04:15.953Z,41.75
2016-05-15T09:05:16.207Z,42.05
2016-05-15T09:06:15.944Z,41.77
2016-05-15T09:07:15.930Z,41.77
2016-05-15T09:08:15.933Z,41.48
2016-05-15T09:09:15.951Z,41.48
2016-05-15T09:10:15.938Z,41.48
2016-05-15T09:11:15.958Z,41.29
2016-05-15T09:12:15.944Z,41.1
2016-05-15T09:13:15.837Z,41.67
2016-05-15T09:14:15.966Z,41.2
2016-05-15T09:15:15.968Z,41.29
2016-05-15T09:16:15.970Z,41.67
2016-05-15T09:17:16.051Z,41.77
2016-05-15T09:18:15.945Z,40.72
2016-05-15T09:19:16.088Z,40.63
2016-05-15T09:20:15.965Z,40.63
2016-05-15T09:21:15.952Z,41.17
2016-05-15T09:22:15.939Z,41.84
2016-05-15T09:23:15.943Z,41.56
2016-05-15T09:24:15.945Z,40.89
2016-05-15T09:25:15.963Z,41.46
2016-05-15T09:26:15.966Z,41.56
2016-05-15T09:27:15.953Z,40.81
2016-05-15T09:28:15.940Z,40.63
2016-05-15T09:29:15.943Z,39.86
2016-05-15T09:30:15.961Z,39.58
2016-05-15T09:31:15.808Z,39.67
2016-05-15T09:32:15.951Z,39
2016-05-15T09:33:15.953Z,39
2016-05-15T09:34:16.347Z,38.62
2016-05-15T09:35:15.881Z,37.1
2016-05-15T09:36:15.961Z,36.71
2016-05-15T09:37:15.949Z,36.71
2016-05-15T09:38:15.952Z,36.81
2016-05-15T09:39:15.955Z,36.62
2016-05-15T09:40:15.957Z,36.14
2016-05-15T09:41:15.975Z,35.95
2016-05-15T09:42:15.963Z,36.24
2016-05-15T09:43:15.965Z,36.62
2016-05-15T09:44:15.983Z,36.64
2016-05-15T09:45:16.126Z,37.3
2016-05-15T09:46:15.958Z,37.59
2016-05-15T09:47:15.960Z,37.97
2016-05-15T09:48:15.979Z,37.66
2016-05-15T09:49:16.246Z,36.73
2016-05-15T09:50:15.984Z,35.87
2016-05-15T09:51:15.987Z,35.39
2016-05-15T09:52:15.958Z,34.54
2016-05-15T09:53:15.976Z,33.97
2016-05-15T09:54:15.995Z,34.54
2016-05-15T09:55:15.965Z,34.82
2016-05-15T09:56:15.968Z,35.49
2016-05-15T09:57:16.003Z,35.87
2016-05-15T09:58:15.973Z,35.97
2016-05-15T09:59:15.977Z,35.68
2016-05-15T10:00:15.964Z,35.02
2016-05-15T10:01:15.982Z,35.02
2016-05-15T10:02:15.969Z,34.54
2016-05-15T10:03:15.972Z,33.49
2016-05-15T10:04:16.100Z,33.2
2016-05-15T10:05:15.820Z,32.81
2016-05-15T10:06:15.964Z,33.29
2016-05-15T10:07:15.983Z,33.11
2016-05-15T10:08:15.970Z,33.11
2016-05-15T10:09:15.972Z,33.87
2016-05-15T10:10:15.974Z,34.82
2016-05-15T10:11:15.993Z,34.92
2016-05-15T10:12:15.965Z,35.49
2016-05-15T10:13:15.983Z,35.49
2016-05-15T10:14:15.985Z,35.39
2016-05-15T10:15:15.989Z,35.59
2016-05-15T10:16:15.991Z,34.92
2016-05-15T10:17:15.994Z,34.73
2016-05-15T10:18:15.996Z,35.59
2016-05-15T10:19:16.359Z,35.3
2016-05-15T10:20:15.830Z,35.78
2016-05-15T10:21:15.989Z,35.59
2016-05-15T10:22:15.991Z,35.87
2016-05-15T10:23:16.009Z,35.78
2016-05-15T10:24:15.857Z,36.16
2016-05-15T10:25:15.984Z,36.43
2016-05-15T10:26:16.002Z,36.43
2016-05-15T10:27:15.989Z,36.14
2016-05-15T10:28:15.992Z,35.57
2016-05-15T10:29:15.979Z,34.63
2016-05-15T10:30:15.857Z,34.34
2016-05-15T10:31:16.000Z,33.97
2016-05-15T10:32:15.987Z,31.4
2016-05-15T10:33:15.990Z,31.02
2016-05-15T10:34:16.009Z,30.16
2016-05-15T10:35:16.073Z,30.18
2016-05-15T10:36:15.997Z,30.27
2016-05-15T10:37:15.986Z,30.66
2016-05-15T10:38:16.004Z,31.31
2016-05-15T10:39:15.834Z,32.55
2016-05-15T10:40:16.024Z,32.92
2016-05-15T10:41:15.997Z,33.01
2016-05-15T10:42:15.858Z,32.73
2016-05-15T10:43:15.986Z,32.44
2016-05-15T10:44:15.988Z,32.44
2016-05-15T10:45:15.991Z,31.18
2016-05-15T10:46:15.994Z,30.8
2016-05-15T10:47:15.997Z,30.52
2016-05-15T10:48:15.999Z,29.67
2016-05-15T10:49:15.846Z,29.77
2016-05-15T10:50:15.988Z,29.58
2016-05-15T10:51:15.852Z,29.86
2016-05-15T10:52:15.994Z,30.53
2016-05-15T10:53:16.012Z,31.39
2016-05-15T10:54:16.015Z,32.24
2016-05-15T10:55:16.001Z,32.53
2016-05-15T10:56:16.005Z,32.82
2016-05-15T10:57:16.023Z,32.63
2016-05-15T10:58:15.995Z,32.92
2016-05-15T10:59:15.997Z,34.16
2016-05-15T11:00:16.001Z,35.02
2016-05-15T11:01:16.003Z,35.78
2016-05-15T11:02:16.006Z,35.97
2016-05-15T11:03:16.008Z,36.73
2016-05-15T11:04:16.012Z,37.21
2016-05-15T11:05:16.013Z,37.68
2016-05-15T11:06:16.001Z,37.59
2016-05-15T11:07:16.019Z,37.97
2016-05-15T11:08:16.006Z,37.4
2016-05-15T11:09:16.024Z,37.21
2016-05-15T11:10:16.012Z,36.44
2016-05-15T11:11:16.014Z,36.44
2016-05-15T11:12:16.033Z,36.54
2016-05-15T11:13:16.019Z,36.25
2016-05-15T11:14:16.006Z,36.83
2016-05-15T11:15:16.008Z,36.25
2016-05-15T11:16:15.856Z,35.6
2016-05-15T11:17:16.014Z,34.84
2016-05-15T11:18:16.002Z,35.03
2016-05-15T11:19:16.019Z,34.84
2016-05-15T11:20:16.022Z,35.03
2016-05-15T11:21:16.025Z,35.13
2016-05-15T11:22:15.887Z,34.65
2016-05-15T11:23:16.015Z,35.03
2016-05-15T11:24:15.893Z,35.03
2016-05-15T11:25:16.020Z,35.6
2016-05-15T11:26:16.023Z,35.03
2016-05-15T11:27:16.010Z,34.67
2016-05-15T11:28:16.059Z,34.67
2016-05-15T11:29:16.015Z,34.67
2016-05-15T11:30:16.018Z,34.57
2016-05-15T11:31:16.037Z,34.09
2016-05-15T11:32:16.039Z,32.57
2016-05-15T11:33:16.042Z,30.94
2016-05-15T11:34:16.076Z,30.56
2016-05-15T11:35:16.110Z,30.75
2016-05-15T11:36:16.034Z,30.56
2016-05-15T11:37:16.178Z,29.8
2016-05-15T11:38:16.039Z,30.1
2016-05-15T11:39:16.058Z,30.08
2016-05-15T11:40:16.030Z,29.43
2016-05-15T11:41:15.892Z,29.62
2016-05-15T11:42:16.035Z,29.24
2016-05-15T11:43:16.147Z,29.91
2016-05-15T11:44:16.071Z,31.05
2016-05-15T11:45:16.059Z,31.24
2016-05-15T11:46:16.046Z,31.53
2016-05-15T11:47:16.064Z,31.43
2016-05-15T11:48:16.082Z,31.35
2016-05-15T11:49:16.054Z,30.78
2016-05-15T11:50:16.056Z,31.55
2016-05-15T11:51:16.060Z,31.45
2016-05-15T11:52:16.062Z,32.1
2016-05-15T11:53:16.065Z,32.87
2016-05-15T11:54:16.082Z,33.42
2016-05-15T11:55:16.085Z,34
2016-05-15T11:56:15.915Z,34.28
2016-05-15T11:57:16.076Z,34
2016-05-15T11:58:16.063Z,33.52
2016-05-15T11:59:16.065Z,33.91
2016-05-15T12:00:15.926Z,33.71
2016-05-15T12:01:16.086Z,32.95
2016-05-15T12:02:16.073Z,32.66
2016-05-15T12:03:15.920Z,32.86
2016-05-15T12:04:15.923Z,32.86
2016-05-15T12:05:16.097Z,32.09
2016-05-15T12:06:16.084Z,31.8
2016-05-15T12:07:16.086Z,32.28
2016-05-15T12:08:16.073Z,32.1
2016-05-15T12:09:16.076Z,32.58
2016-05-15T12:10:16.079Z,31.53
2016-05-15T12:11:16.081Z,29.81
2016-05-15T12:12:16.100Z,29.62
2016-05-15T12:13:16.103Z,29.43
2016-05-15T12:14:16.106Z,29.54
2016-05-15T12:15:16.124Z,29.54
2016-05-15T12:16:16.095Z,29.73
2016-05-15T12:17:16.113Z,29.54
2016-05-15T12:18:16.100Z,29.83
2016-05-15T12:19:16.696Z,29.73
2016-05-15T12:20:16.137Z,30.02
2016-05-15T12:21:16.125Z,30.49
2016-05-15T12:22:16.127Z,30.4
2016-05-15T12:23:16.130Z,31.45
2016-05-15T12:24:16.132Z,31.07
2016-05-15T12:25:16.104Z,31.64
2016-05-15T12:26:16.121Z,32.12
2016-05-15T12:27:16.125Z,32.49
2016-05-15T12:28:16.143Z,32.58
2016-05-15T12:29:16.130Z,32.58
2016-05-15T12:30:16.132Z,32.49
2016-05-15T12:31:16.120Z,32.49
2016-05-15T12:32:16.138Z,31.34
2016-05-15T12:33:16.141Z,30.67
2016-05-15T12:34:16.128Z,30.56
2016-05-15T12:35:16.146Z,31.61
2016-05-15T12:36:16.133Z,31.42
2016-05-15T12:37:16.151Z,31.61
2016-05-15T12:38:16.154Z,31.71
2016-05-15T12:39:16.142Z,32.86
2016-05-15T12:40:16.160Z,33.04
2016-05-15T12:41:16.162Z,33.04
2016-05-15T12:42:16.165Z,32.57
2016-05-15T12:43:16.011Z,32.66
2016-05-15T12:44:16.155Z,32.57
2016-05-15T12:45:16.344Z,32.57
2016-05-15T12:46:16.161Z,31.82
2016-05-15T12:47:16.178Z,31.53
2016-05-15T12:48:16.181Z,30.58
2016-05-15T12:49:16.184Z,29.91
2016-05-15T12:50:16.171Z,29.81
2016-05-15T12:51:16.174Z,30.29
2016-05-15T12:52:16.176Z,31.43
2016-05-15T12:53:16.179Z,31.15
2016-05-15T12:54:16.182Z,30.96
2016-05-15T12:55:16.185Z,31.34